Time;durP1;ratioP1;P1;durP2;ratioP2;P2;SDS_P1;SDS_P2;PMS_P1;PMS_P2;Temp;Humidity;BMP_temperature;BMP_pressure;BME280_temperature;BME280_humidity;BME280_pressure;Samples;Min_cycle;Max_cycle;Signal;HPM_P1;HPM_P2
2022/01/05 00:02:13;;;;;;;1999.90;999.90;;;1.90;99.90;;;;;;5054669;28;20403;-62
2022/01/05 00:04:39;;;;;;;1999.90;999.90;;;1.90;99.90;;;;;;5070323;28;20044;-63
2022/01/05 00:07:07;;;;;;;1999.90;999.90;;;1.80;99.90;;;;;;5075803;28;20059;-63
2022/01/05 00:09:33;;;;;;;1999.90;999.90;;;1.90;99.90;;;;;;5082154;28;20051;-62
2022/01/05 00:11:59;;;;;;;1999.90;999.90;;;1.80;99.90;;;;;;5095269;28;20062;-63
2022/01/05 00:14:25;;;;;;;1999.90;999.90;;;1.90;99.90;;;;;;5095249;28;20394;-62
2022/01/05 00:16:51;;;;;;;1999.90;999.90;;;2.00;99.90;;;;;;5094125;28;20044;-62
2022/01/05 00:19:17;;;;;;;1999.90;999.90;;;1.80;99.90;;;;;;5074641;28;20124;-62
2022/01/05 00:21:43;;;;;;;1999.90;999.90;;;1.80;99.90;;;;;;5074332;28;20045;-63
2022/01/05 00:24:08;;;;;;;1999.90;999.90;;;1.80;99.90;;;;;;5075218;28;20071;-63
2022/01/05 00:26:35;;;;;;;1999.90;999.90;;;1.80;99.90;;;;;;5077067;28;20398;-62
2022/01/05 00:29:02;;;;;;;1999.90;999.90;;;1.80;99.90;;;;;;5094763;28;20409;-62
2022/01/05 00:31:28;;;;;;;1999.90;999.90;;;1.90;99.90;;;;;;5095525;28;20051;-63
2022/01/05 00:33:55;;;;;;;1999.90;999.90;;;2.00;99.90;;;;;;5094857;28;20040;-63
2022/01/05 00:36:21;;;;;;;1999.90;999.90;;;2.10;99.90;;;;;;5094030;28;20123;-63
2022/01/05 00:38:48;;;;;;;1999.90;999.90;;;1.80;99.90;;;;;;5094447;28;20074;-62
2022/01/05 00:41:13;;;;;;;1999.90;999.90;;;1.90;99.90;;;;;;5074755;28;20132;-62
2022/01/05 00:43:39;;;;;;;1999.90;999.90;;;1.80;99.90;;;;;;5056114;28;20131;-63
2022/01/05 00:46:06;;;;;;;1999.90;999.90;;;1.80;99.90;;;;;;5092207;28;20123;-63
2022/01/05 00:48:34;;;;;;;1999.90;999.90;;;1.70;99.90;;;;;;5094512;28;20051;-62
2022/01/05 00:51:02;;;;;;;1999.90;999.90;;;1.80;99.90;;;;;;5094290;28;20040;-63
2022/01/05 00:53:28;;;;;;;1999.90;999.90;;;1.80;99.90;;;;;;5076145;28;20406;-62
2022/01/05 00:55:54;;;;;;;1999.90;999.90;;;1.70;99.90;;;;;;5065430;28;20048;-62
2022/01/05 00:58:20;;;;;;;1999.90;999.90;;;1.80;99.90;;;;;;5073808;28;20048;-63
2022/01/05 01:00:46;;;;;;;1999.90;999.90;;;1.80;99.90;;;;;;5074259;28;20090;-63
2022/01/05 01:03:11;;;;;;;1999.90;999.90;;;1.80;99.90;;;;;;5083451;28;20051;-63
2022/01/05 01:05:37;;;;;;;1999.90;999.90;;;1.80;99.90;;;;;;5073691;28;20435;-62
2022/01/05 01:08:03;;;;;;;1999.90;999.90;;;1.70;99.90;;;;;;5074500;28;20037;-62
2022/01/05 01:10:29;;;;;;;1999.90;999.90;;;1.80;99.90;;;;;;5074405;28;20449;-63
2022/01/05 01:12:55;;;;;;;1999.90;999.90;;;1.70;99.90;;;;;;5092553;28;20052;-63
2022/01/05 01:15:21;;;;;;;1999.90;999.90;;;1.70;99.90;;;;;;5076276;28;20048;-64
2022/01/05 01:17:46;;;;;;;1999.90;999.90;;;1.70;99.90;;;;;;5084236;28;20060;-64
2022/01/05 01:20:12;;;;;;;1999.90;999.90;;;1.80;99.90;;;;;;5080401;28;20117;-62
2022/01/05 01:22:38;;;;;;;1999.90;999.90;;;1.90;99.90;;;;;;5094332;28;20113;-62
2022/01/05 01:25:06;;;;;;;1999.90;999.90;;;1.90;99.90;;;;;;5093717;28;20071;-63
2022/01/05 01:27:32;;;;;;;1999.90;999.90;;;2.00;99.90;;;;;;5094197;28;20051;-62
2022/01/05 01:29:58;;;;;;;1999.90;999.90;;;2.10;99.90;;;;;;5078953;28;20052;-64
2022/01/05 01:32:24;;;;;;;1999.90;999.90;;;2.20;99.90;;;;;;5072629;28;20055;-63
2022/01/05 01:34:50;;;;;;;1999.90;999.90;;;2.10;99.90;;;;;;5073731;28;20044;-63
2022/01/05 01:37:16;;;;;;;1999.90;999.90;;;2.20;99.90;;;;;;5074951;28;20062;-62
2022/01/05 01:39:41;;;;;;;1999.90;999.90;;;2.20;99.90;;;;;;5084740;28;20048;-63
2022/01/05 01:42:07;;;;;;;1999.90;999.90;;;2.20;99.90;;;;;;5073542;28;20059;-63
2022/01/05 01:44:33;;;;;;;1999.90;999.90;;;2.20;99.90;;;;;;5073390;28;20048;-62
2022/01/05 01:46:59;;;;;;;1999.90;999.90;;;2.30;99.90;;;;;;5063443;28;20048;-63
2022/01/05 01:49:25;;;;;;;1999.90;999.90;;;2.10;99.90;;;;;;5093661;28;20071;-63
2022/01/05 01:51:50;;;;;;;1999.90;999.90;;;2.30;99.90;;;;;;5093813;28;20121;-63
2022/01/05 01:54:17;;;;;;;1999.90;999.90;;;2.40;99.90;;;;;;5093241;28;20059;-63
2022/01/05 01:56:46;;;;;;;1999.90;999.90;;;2.30;99.90;;;;;;5091042;28;20095;-63
2022/01/05 01:59:12;;;;;;;1999.90;999.90;;;2.30;99.90;;;;;;5093568;28;20047;-63
2022/01/05 02:01:40;;;;;;;1999.90;999.90;;;2.20;99.90;;;;;;5072069;28;20079;-63
2022/01/05 02:04:06;;;;;;;1999.90;999.90;;;2.40;99.90;;;;;;5072756;28;20083;-62
2022/01/05 02:06:32;;;;;;;1999.90;999.90;;;2.20;99.90;;;;;;5071953;28;20080;-63
2022/01/05 02:08:59;;;;;;;1999.90;999.90;;;2.30;99.90;;;;;;5072542;28;20049;-63
2022/01/05 02:11:25;;;;;;;1999.90;999.90;;;2.40;99.90;;;;;;5072805;28;20449;-64
2022/01/05 02:13:51;;;;;;;1999.90;999.90;;;2.50;99.90;;;;;;5084662;28;20060;-62
2022/01/05 02:16:29;;;;;;;1999.90;999.90;;;2.50;99.90;;;;;;5092686;28;20047;-62
2022/01/05 02:19:01;;;;;;;1999.90;999.90;;;2.50;99.90;;;;;;5074047;28;20094;-63
2022/01/05 02:21:29;;;;;;;1999.90;999.90;;;2.70;99.90;;;;;;5055389;28;20079;-63
2022/01/05 02:23:55;;;;;;;1999.90;999.90;;;2.70;99.90;;;;;;5075258;28;20048;-64
2022/01/05 02:26:20;;;;;;;1999.90;999.90;;;2.70;99.90;;;;;;5092994;28;20046;-63
2022/01/05 02:28:46;;;;;;;1999.90;999.90;;;2.60;99.90;;;;;;5092484;28;20118;-63
2022/01/05 02:31:12;;;;;;;1999.90;999.90;;;2.60;99.90;;;;;;5074377;28;20063;-63
2022/01/05 02:33:40;;;;;;;1999.90;999.90;;;2.70;99.90;;;;;;5092856;28;20070;-63
2022/01/05 02:36:06;;;;;;;1999.90;999.90;;;2.60;99.90;;;;;;5092410;28;20048;-63
2022/01/05 02:38:32;;;;;;;1999.90;999.90;;;2.60;99.90;;;;;;5093306;28;20062;-63
2022/01/05 02:41:07;;;;;;;1999.90;999.90;;;2.60;99.90;;;;;;5089680;28;20475;-63
2022/01/05 02:43:35;;;;;;;1999.90;999.90;;;2.70;99.90;;;;;;5092627;28;20052;-63
2022/01/05 02:46:01;;;;;;;1999.90;999.90;;;2.60;99.90;;;;;;5075090;28;20081;-63
2022/01/05 02:48:27;;;;;;;1999.90;999.90;;;2.60;99.90;;;;;;5091770;28;20463;-63
2022/01/05 02:50:59;;;;;;;1999.90;999.90;;;2.50;99.90;;;;;;5092270;28;20123;-62
2022/01/05 02:53:25;;;;;;;1999.90;999.90;;;2.50;99.90;;;;;;5093266;28;20044;-62
2022/01/05 02:55:52;;;;;;;1999.90;999.90;;;2.40;99.90;;;;;;5081769;28;20049;-63
2022/01/05 02:58:18;;;;;;;1999.90;999.90;;;2.40;99.90;;;;;;5053964;28;20057;-63
2022/01/05 03:00:45;;;;;;;1999.90;999.90;;;2.40;99.90;;;;;;5072720;28;20044;-62
2022/01/05 03:03:11;;;;;;;1999.90;999.90;;;2.40;99.90;;;;;;5053818;28;20044;-63
2022/01/05 03:05:36;;;;;;;1999.90;999.90;;;2.40;99.90;;;;;;5072373;28;20067;-62
2022/01/05 03:08:03;;;;;;;1999.90;999.90;;;2.50;99.90;;;;;;5092847;28;20048;-62
2022/01/05 03:10:29;;;;;;;1999.90;999.90;;;2.60;99.90;;;;;;5091495;28;20547;-62
2022/01/05 03:12:54;;;;;;;1999.90;999.90;;;2.60;99.90;;;;;;5092579;28;20052;-63
2022/01/05 03:15:20;;;;;;;1999.90;999.90;;;2.80;99.90;;;;;;5084389;28;20048;-63
2022/01/05 03:17:46;;;;;;;1999.90;999.90;;;2.70;99.90;;;;;;5071411;28;20049;-63
2022/01/05 03:20:13;;;;;;;1999.90;999.90;;;2.80;99.90;;;;;;5072597;28;20047;-63
2022/01/05 03:22:40;;;;;;;1999.90;999.90;;;2.90;99.90;;;;;;5072459;28;20056;-63
2022/01/05 03:25:07;;;;;;;1999.90;999.90;;;2.90;99.90;;;;;;5086592;28;20617;-63
2022/01/05 03:27:33;;;;;;;1999.90;999.90;;;3.00;99.90;;;;;;5092782;28;20044;-63
2022/01/05 03:29:59;;;;;;;1999.90;999.90;;;3.10;99.90;;;;;;5092643;28;20036;-62
2022/01/05 03:32:31;;;;;;;1999.90;999.90;;;3.10;99.90;;;;;;5072877;28;20421;-63
2022/01/05 03:34:56;;;;;;;1999.90;999.90;;;3.10;99.90;;;;;;5092352;28;20048;-63
2022/01/05 03:37:22;;;;;;;1999.90;999.90;;;3.10;99.90;;;;;;5092575;28;20539;-62
2022/01/05 03:39:48;;;;;;;1999.90;999.90;;;3.10;99.90;;;;;;5082134;28;20119;-62
2022/01/05 03:42:13;;;;;;;1999.90;999.90;;;3.20;99.90;;;;;;5082896;28;20398;-63
2022/01/05 03:44:39;;;;;;;1999.90;999.90;;;3.30;99.90;;;;;;5092581;28;20109;-63
2022/01/05 03:47:05;;;;;;;1999.90;999.90;;;3.30;99.90;;;;;;5091523;28;20374;-63
2022/01/05 03:49:31;;;;;;;1999.90;999.90;;;3.40;99.90;;;;;;5092003;28;20113;-63
2022/01/05 03:51:56;;;;;;;1999.90;999.90;;;3.40;99.90;;;;;;5092030;28;20040;-64
2022/01/05 03:54:22;;;;;;;1999.90;999.90;;;3.50;99.90;;;;;;5091289;28;20482;-63
2022/01/05 03:56:48;;;;;;;1999.90;999.90;;;3.40;99.90;;;;;;5075733;28;20040;-64
2022/01/05 03:59:13;;;;;;;1999.90;999.90;;;3.50;99.90;;;;;;5080666;28;20596;-63
2022/01/05 04:01:39;;;;;;;1999.90;999.90;;;3.50;99.90;;;;;;5092067;28;20124;-63
2022/01/05 04:04:05;;;;;;;1999.90;999.90;;;3.40;99.90;;;;;;5075354;28;20124;-64
2022/01/05 04:06:30;;;;;;;1999.90;999.90;;;3.50;99.90;;;;;;5075359;28;20040;-63
2022/01/05 04:08:56;;;;;;;1999.90;999.90;;;3.50;99.90;;;;;;5086937;28;20044;-63
2022/01/05 04:11:22;;;;;;;1999.90;999.90;;;3.60;99.90;;;;;;5095714;28;20102;-62
2022/01/05 04:13:48;;;;;;;1999.90;999.90;;;3.60;99.90;;;;;;5095081;28;20055;-63
2022/01/05 04:16:13;;;;;;;1999.90;999.90;;;3.50;99.90;;;;;;5095638;28;20056;-63
2022/01/05 04:18:40;;;;;;;1999.90;999.90;;;3.60;99.90;;;;;;5077909;28;20414;-63
2022/01/05 04:21:06;;;;;;;1999.90;999.90;;;3.50;99.90;;;;;;5074781;28;20040;-64
2022/01/05 04:23:31;;;;;;;1999.90;999.90;;;3.60;99.90;;;;;;5056843;28;20048;-63
2022/01/05 04:25:57;;;;;;;1999.90;999.90;;;3.60;99.90;;;;;;5081458;28;20540;-63
2022/01/05 04:28:23;;;;;;;1999.90;999.90;;;3.50;99.90;;;;;;5094667;28;20104;-63
2022/01/05 04:30:48;;;;;;;1999.90;999.90;;;3.50;99.90;;;;;;5094971;28;20040;-63
2022/01/05 04:33:14;;;;;;;1999.90;999.90;;;3.50;99.90;;;;;;5095428;28;20063;-63
2022/01/05 04:35:40;;;;;;;1999.90;999.90;;;3.60;99.90;;;;;;5094225;28;20040;-62
2022/01/05 04:38:05;;;;;;;1999.90;999.90;;;3.50;99.90;;;;;;5095128;28;20083;-64
2022/01/05 04:40:31;;;;;;;1999.90;999.90;;;3.40;99.90;;;;;;5079785;28;20056;-63
2022/01/05 04:42:58;;;;;;;1999.90;999.90;;;3.40;99.90;;;;;;5074697;28;20048;-63
2022/01/05 04:45:23;;;;;;;1999.90;999.90;;;3.40;99.90;;;;;;5095001;28;20119;-63
2022/01/05 04:47:49;;;;;;;1999.90;999.90;;;3.60;99.90;;;;;;5095262;28;20127;-63
2022/01/05 04:50:15;;;;;;;1999.90;999.90;;;3.50;99.90;;;;;;5094118;28;20092;-63
2022/01/05 04:52:42;;;;;;;1999.90;999.90;;;3.50;99.90;;;;;;5086464;28;20059;-63
2022/01/05 04:55:09;;;;;;;1999.90;999.90;;;3.60;99.90;;;;;;5074125;28;20092;-63
2022/01/05 04:57:34;;;;;;;1999.90;999.90;;;3.50;99.90;;;;;;5073850;28;20040;-63
2022/01/05 05:00:00;;;;;;;1999.90;999.90;;;3.50;99.90;;;;;;5074542;28;20047;-63
2022/01/05 05:02:26;;;;;;;1999.90;999.90;;;3.50;99.90;;;;;;5089376;28;20519;-63
2022/01/05 05:04:52;;;;;;;1999.90;999.90;;;3.60;99.90;;;;;;5076855;28;20040;-63
2022/01/05 05:07:18;;;;;;;1999.90;999.90;;;3.50;99.90;;;;;;5073534;28;20071;-63
2022/01/05 05:09:44;;;;;;;1999.90;999.90;;;3.50;99.90;;;;;;5076374;28;20044;-64
2022/01/05 05:12:10;;;;;;;1999.90;999.90;;;3.50;99.90;;;;;;5075486;28;20058;-64
2022/01/05 05:14:36;;;;;;;1999.90;999.90;;;3.50;99.90;;;;;;5094792;28;20063;-64
2022/01/05 05:17:02;;;;;;;1999.90;999.90;;;3.50;99.90;;;;;;5090078;28;20044;-64
2022/01/05 05:19:28;;;;;;;1999.90;999.90;;;3.40;99.90;;;;;;5084278;28;20048;-64
2022/01/05 05:21:54;;;;;;;1999.90;999.90;;;3.60;99.90;;;;;;5094555;28;20126;-64
2022/01/05 05:24:20;;;;;;;1999.90;999.90;;;3.60;99.90;;;;;;5093356;28;20116;-64
2022/01/05 05:26:46;;;;;;;1999.90;999.90;;;3.50;99.90;;;;;;5094282;28;20401;-64
2022/01/05 05:29:11;;;;;;;1999.90;999.90;;;3.70;99.90;;;;;;5075421;28;20073;-64
2022/01/05 05:31:37;;;;;;;1999.90;999.90;;;3.60;99.90;;;;;;5093265;28;20044;-64
2022/01/05 05:34:03;;;;;;;1999.90;999.90;;;3.60;99.90;;;;;;5094363;28;20036;-65
2022/01/05 05:36:29;;;;;;;1999.90;999.90;;;3.50;99.90;;;;;;5093651;28;20047;-65
2022/01/05 05:38:54;;;;;;;1999.90;999.90;;;3.60;99.90;;;;;;5073159;28;20474;-63
2022/01/05 05:41:20;;;;;;;1999.90;999.90;;;3.80;99.90;;;;;;5073680;28;20052;-65
2022/01/05 05:43:48;;;;;;;1999.90;999.90;;;3.60;99.90;;;;;;5073838;28;20053;-65
2022/01/05 05:46:15;;;;;;;1999.90;999.90;;;3.70;99.90;;;;;;5084200;28;20044;-64
2022/01/05 05:48:41;;;;;;;1999.90;999.90;;;3.70;99.90;;;;;;5094000;28;20040;-65
2022/01/05 05:51:06;;;;;;;1999.90;999.90;;;3.70;99.90;;;;;;5092561;28;20486;-64
2022/01/05 05:53:32;;;;;;;1999.90;999.90;;;3.80;99.90;;;;;;5092884;28;20048;-64
2022/01/05 05:55:58;;;;;;;1999.90;999.90;;;3.80;99.90;;;;;;5081808;28;20040;-65
2022/01/05 05:58:24;;;;;;;1999.90;999.90;;;4.10;99.90;;;;;;5055861;28;20483;-65
2022/01/05 06:00:49;;;;;;;1999.90;999.90;;;4.20;99.90;;;;;;5072163;28;20044;-66
2022/01/05 06:03:15;;;;;;;1999.90;999.90;;;4.10;99.90;;;;;;5075634;28;20486;-65
2022/01/05 06:05:41;;;;;;;1999.90;999.90;;;4.10;99.90;;;;;;5073439;28;20543;-65
2022/01/05 06:08:08;;;;;;;1999.90;999.90;;;4.20;99.90;;;;;;5054264;28;20062;-65
2022/01/05 06:10:34;;;;;;;1999.90;999.90;;;3.90;99.90;;;;;;5055369;28;20040;-65
2022/01/05 06:13:00;;;;;;;1999.90;999.90;;;3.90;99.90;;;;;;5056526;28;20057;-65
2022/01/05 06:15:25;;;;;;;1999.90;999.90;;;4.00;99.90;;;;;;5051951;28;20049;-66
2022/01/05 06:17:51;;;;;;;1999.90;999.90;;;3.80;99.90;;;;;;5052898;28;20061;-65
2022/01/05 06:20:17;;;;;;;1999.90;999.90;;;3.70;99.90;;;;;;5033884;28;20052;-66
2022/01/05 06:22:43;;;;;;;1999.90;999.90;;;3.60;99.90;;;;;;5052600;28;20053;-66
2022/01/05 06:25:10;;;;;;;1999.90;999.90;;;3.60;99.90;;;;;;5035234;28;20040;-65
2022/01/05 06:27:36;;;;;;;1999.90;999.90;;;3.40;99.90;;;;;;5052044;28;20554;-65
2022/01/05 06:30:06;;;;;;;1999.90;999.90;;;3.70;99.90;;;;;;5052086;28;20045;-64
2022/01/05 06:32:34;;;;;;;1999.90;999.90;;;3.60;99.90;;;;;;5052890;28;20102;-65
2022/01/05 06:35:01;;;;;;;1999.90;999.90;;;3.70;99.90;;;;;;5034187;28;20110;-65
2022/01/05 06:37:27;;;;;;;1999.90;999.90;;;3.80;99.90;;;;;;5052538;28;20475;-64
2022/01/05 06:39:52;;;;;;;1999.90;999.90;;;4.20;99.90;;;;;;5052547;28;20052;-65
2022/01/05 06:42:18;;;;;;;1999.90;999.90;;;3.70;99.90;;;;;;5051857;28;20616;-65
2022/01/05 06:44:44;;;;;;;1999.90;999.90;;;3.70;99.90;;;;;;5052533;28;20140;-65
2022/01/05 06:47:10;;;;;;;1999.90;999.90;;;3.80;99.90;;;;;;5052620;28;20115;-65
2022/01/05 06:49:36;;;;;;;1999.90;999.90;;;3.90;99.90;;;;;;5051938;28;20136;-65
2022/01/05 06:52:02;;;;;;;1999.90;999.90;;;4.00;99.90;;;;;;5052250;28;20053;-64
2022/01/05 06:54:29;;;;;;;1999.90;999.90;;;3.70;99.90;;;;;;5052590;28;20487;-65
2022/01/05 06:56:55;;;;;;;1999.90;999.90;;;3.80;99.90;;;;;;5051180;28;20045;-65
2022/01/05 06:59:21;;;;;;;1999.90;999.90;;;3.80;99.90;;;;;;5052394;28;20056;-65
2022/01/05 07:01:47;;;;;;;1999.90;999.90;;;4.00;99.90;;;;;;5052578;28;20045;-64
2022/01/05 07:04:13;;;;;;;1999.90;999.90;;;4.00;99.90;;;;;;5063493;28;20083;-65
2022/01/05 07:06:39;;;;;;;1999.90;999.90;;;4.20;99.90;;;;;;5053348;28;20095;-65
2022/01/05 07:09:05;;;;;;;1999.90;999.90;;;4.10;99.90;;;;;;5052559;28;20040;-65
2022/01/05 07:11:32;;;;;;;1999.90;999.90;;;3.90;99.90;;;;;;5053844;28;20126;-65
2022/01/05 07:13:58;;;;;;;1999.90;999.90;;;4.30;99.90;;;;;;5071780;28;20474;-64
2022/01/05 07:16:24;;;;;;;1999.90;999.90;;;4.00;99.90;;;;;;5072377;28;20045;-65
2022/01/05 07:18:50;;;;;;;1999.90;999.90;;;4.10;99.90;;;;;;5072349;28;20547;-65
2022/01/05 07:21:16;;;;;;;1999.90;999.90;;;4.20;99.90;;;;;;5072155;28;20052;-65
2022/01/05 07:23:42;;;;;;;1999.90;999.90;;;4.10;99.90;;;;;;5071237;28;20056;-65
2022/01/05 07:26:07;;;;;;;1999.90;999.90;;;4.00;99.90;;;;;;5072165;28;20048;-65
2022/01/05 07:28:33;;;;;;;1999.90;999.90;;;4.20;99.90;;;;;;5072181;28;20094;-65
2022/01/05 07:30:59;;;;;;;1999.90;999.90;;;4.30;99.90;;;;;;5072576;28;20032;-66
2022/01/05 07:33:26;;;;;;;1999.90;999.90;;;4.40;99.90;;;;;;5076312;28;20440;-65
2022/01/05 07:35:52;;;;;;;1999.90;999.90;;;4.30;99.90;;;;;;5075873;28;20056;-65
2022/01/05 07:38:18;;;;;;;1999.90;999.90;;;4.30;99.90;;;;;;5075648;28;20057;-66
2022/01/05 07:40:44;;;;;;;1999.90;999.90;;;4.20;99.90;;;;;;5075966;28;20043;-66
2022/01/05 07:43:10;;;;;;;1999.90;999.90;;;4.10;99.90;;;;;;5075612;28;20037;-64
2022/01/05 07:45:35;;;;;;;1999.90;999.90;;;4.30;99.90;;;;;;5075302;28;20254;-64
2022/01/05 07:48:03;;;;;;;1999.90;999.90;;;4.60;99.90;;;;;;5075938;28;20123;-66
2022/01/05 07:50:29;;;;;;;1999.90;999.90;;;3.90;99.90;;;;;;5075127;28;20076;-65
2022/01/05 07:52:55;;;;;;;1999.90;999.90;;;4.50;99.90;;;;;;5075237;28;20048;-65
2022/01/05 07:55:21;;;;;;;1999.90;999.90;;;3.90;99.90;;;;;;5075492;28;20040;-65
2022/01/05 07:57:46;;;;;;;1999.90;999.90;;;4.00;99.90;;;;;;5057268;28;20153;-65
2022/01/05 08:00:13;;;;;;;1999.90;999.90;;;4.00;99.90;;;;;;5074897;28;20045;-65
2022/01/05 08:02:38;;;;;;;1999.90;999.90;;;3.80;99.90;;;;;;5058055;28;20494;-66
2022/01/05 08:05:06;;;;;;;1999.90;999.90;;;3.90;99.90;;;;;;5075833;28;20141;-66
2022/01/05 08:07:32;;;;;;;1999.90;999.90;;;3.80;99.90;;;;;;5074455;28;20044;-65
2022/01/05 08:09:58;;;;;;;1999.90;999.90;;;3.90;99.90;;;;;;5057233;28;20055;-65
2022/01/05 08:12:23;;;;;;;1999.90;999.90;;;4.00;99.90;;;;;;5075446;28;20064;-65
2022/01/05 08:14:49;;;;;;;1999.90;999.90;;;3.90;99.90;;;;;;5074553;28;20052;-66
2022/01/05 08:17:15;;;;;;;1999.90;999.90;;;4.00;99.90;;;;;;5077474;28;20094;-65
2022/01/05 08:19:42;;;;;;;1999.90;999.90;;;4.10;99.90;;;;;;5078452;28;20052;-65
2022/01/05 08:22:08;;;;;;;1999.90;999.90;;;4.10;99.90;;;;;;5074887;28;20098;-65
2022/01/05 08:24:34;;;;;;;1999.90;999.90;;;4.30;99.90;;;;;;5077696;28;20103;-65
2022/01/05 08:27:00;;;;;;;1999.90;999.90;;;4.40;99.90;;;;;;5074670;28;20053;-66
2022/01/05 08:29:25;;;;;;;1999.90;999.90;;;4.40;99.90;;;;;;5074912;28;20552;-65
2022/01/05 08:31:51;;;;;;;1999.90;999.90;;;4.50;99.90;;;;;;5075414;28;20541;-65
2022/01/05 08:34:17;;;;;;;1999.90;999.90;;;4.50;99.90;;;;;;5074371;28;20376;-66
2022/01/05 08:36:43;;;;;;;1999.90;999.90;;;5.00;99.90;;;;;;5074922;28;20044;-65
2022/01/05 08:39:09;;;;;;;1999.90;999.90;;;5.10;99.90;;;;;;5074997;28;20044;-66
2022/01/05 08:41:34;;;;;;;1999.90;999.90;;;4.50;99.90;;;;;;5074252;28;20041;-66
2022/01/05 08:44:00;;;;;;;1999.90;999.90;;;4.50;99.90;;;;;;5074449;28;20467;-65
2022/01/05 08:46:26;;;;;;;1999.90;999.90;;;4.60;99.90;;;;;;5057178;28;20040;-65
2022/01/05 08:48:52;;;;;;;1999.90;999.90;;;4.70;99.90;;;;;;5074103;28;20048;-65
2022/01/05 08:51:17;;;;;;;1999.90;999.90;;;5.20;99.90;;;;;;5056066;28;20040;-67
2022/01/05 08:53:43;;;;;;;1999.90;999.90;;;5.00;99.90;;;;;;5074794;28;20051;-67
2022/01/05 08:56:09;;;;;;;1999.90;999.90;;;5.10;99.90;;;;;;5074037;28;20119;-66
2022/01/05 08:58:35;;;;;;;1999.90;999.90;;;4.80;99.90;;;;;;5074464;28;20546;-65
2022/01/05 09:01:01;;;;;;;1999.90;999.90;;;5.00;99.90;;;;;;5074431;28;20166;-65
2022/01/05 09:03:26;;;;;;;1999.90;999.90;;;5.10;99.90;;;;;;5084221;28;20047;-65
2022/01/05 09:05:52;;;;;;;1999.90;999.90;;;4.90;99.90;;;;;;5089163;28;20052;-65
2022/01/05 09:08:18;;;;;;;1999.90;999.90;;;5.20;99.90;;;;;;5073931;28;20165;-64
2022/01/05 09:10:44;;;;;;;1999.90;999.90;;;5.00;99.90;;;;;;5073517;28;20127;-64
2022/01/05 09:13:11;;;;;;;1999.90;999.90;;;5.10;99.90;;;;;;5073954;28;20106;-64
2022/01/05 09:15:37;;;;;;;1999.90;999.90;;;5.30;99.90;;;;;;5074403;28;20137;-64
2022/01/05 09:18:03;;;;;;;1999.90;999.90;;;5.10;99.90;;;;;;5072972;28;20565;-64
2022/01/05 09:20:29;;;;;;;1999.90;999.90;;;5.20;99.90;;;;;;5074008;28;20131;-64
2022/01/05 09:22:56;;;;;;;1999.90;999.90;;;5.10;99.90;;;;;;5073877;28;20124;-64
2022/01/05 09:25:23;;;;;;;1999.90;999.90;;;5.10;99.90;;;;;;5073576;28;20052;-64
2022/01/05 09:27:51;;;;;;;1999.90;999.90;;;5.30;99.90;;;;;;5073532;28;20049;-64
2022/01/05 09:30:18;;;;;;;1999.90;999.90;;;5.60;99.90;;;;;;5055219;28;20052;-64
2022/01/05 09:32:44;;;;;;;1999.90;999.90;;;5.80;99.90;;;;;;5074209;28;20048;-64
2022/01/05 09:35:14;;;;;;;1999.90;999.90;;;5.50;99.90;;;;;;5073490;28;20053;-64
2022/01/05 09:37:52;;;;;;;1999.90;999.90;;;;;;;;;;5063322;28;20048;-64
2022/01/05 09:43:05;;;;;;;1999.90;999.90;;;5.50;99.90;;;;;;5087482;28;20497;-63
2022/01/05 09:45:34;;;;;;;1999.90;999.90;;;5.60;99.90;;;;;;5088426;28;20136;-64
2022/01/05 09:48:18;;;;;;;1999.90;999.90;;;5.70;99.90;;;;;;5093496;28;20080;-64
2022/01/05 09:50:55;;;;;;;1999.90;999.90;;;5.70;99.90;;;;;;5093375;28;20044;-64
2022/01/05 09:53:23;;;;;;;1999.90;999.90;;;5.70;99.90;;;;;;5090910;28;20063;-64
2022/01/05 09:55:51;;;;;;;1999.90;999.90;;;5.70;99.90;;;;;;5093517;28;20535;-64
2022/01/05 09:58:21;;;;;;;1999.90;999.90;;;5.70;99.90;;;;;;5074274;28;20040;-64
2022/01/05 10:00:49;;;;;;;1999.90;999.90;;;6.00;99.90;;;;;;5093563;28;20466;-64
2022/01/05 10:03:15;;;;;;;1999.90;999.90;;;6.60;99.90;;;;;;5092358;28;20080;-65
2022/01/05 10:05:42;;;;;;;1999.90;999.90;;;7.00;99.90;;;;;;5092430;28;20452;-64
2022/01/05 10:08:09;;;;;;;1999.90;999.90;;;7.30;99.90;;;;;;5093383;28;20490;-64
2022/01/05 10:10:34;;;;;;;1999.90;999.90;;;7.40;99.90;;;;;;5092834;28;20052;-63
2022/01/05 10:13:01;;;;;;;1999.90;999.90;;;7.50;99.90;;;;;;5091429;28;20060;-64
2022/01/05 10:15:27;;;;;;;1999.90;999.90;;;7.30;99.90;;;;;;5093449;28;20099;-63
2022/01/05 10:18:12;;;;;;;1999.90;999.90;;;7.30;99.90;;;;;;5093459;28;20047;-64
2022/01/05 10:20:53;;;;;;;1999.90;999.90;;;7.50;99.90;;;;;;5090929;28;20642;-64
2022/01/05 10:23:35;;;;;;;1999.90;999.90;;;7.60;99.90;;;;;;5092930;28;20395;-64
2022/01/05 10:26:23;;;;;;;1999.90;999.90;;;7.50;99.90;;;;;;5090922;28;20082;-63
2022/01/05 10:28:51;;;;;;;1999.90;999.90;;;7.50;99.90;;;;;;5079211;28;20355;-64
2022/01/05 10:31:20;;;;;;;1999.90;999.90;;;7.50;99.90;;;;;;5093240;28;20036;-64
2022/01/05 10:33:46;;;;;;;1999.90;999.90;;;7.60;99.90;;;;;;5071602;28;20055;-64
2022/01/05 10:36:11;;;;;;;1999.90;999.90;;;7.70;99.90;;;;;;5054715;28;20127;-64
2022/01/05 10:38:37;;;;;;;1999.90;999.90;;;7.70;99.90;;;;;;5084977;28;20048;-64
2022/01/05 10:41:15;;;;;;;1999.90;999.90;;;7.90;99.90;;;;;;5091855;28;20044;-64
2022/01/05 10:44:10;;;;;;;1999.90;999.90;;;8.10;99.90;;;;;;5092639;28;20490;-64
2022/01/05 10:46:38;;;;;;;1999.90;999.90;;;8.20;99.90;;;;;;5091604;28;20044;-64
2022/01/05 10:49:05;;;;;;;1999.90;999.90;;;8.30;99.90;;;;;;5091430;28;20036;-64
2022/01/05 10:51:32;;;;;;;1999.90;999.90;;;8.40;99.90;;;;;;5092332;28;20505;-64
2022/01/05 10:54:12;;;;;;;1999.90;999.90;;;8.70;99.90;;;;;;5092792;28;20040;-64
2022/01/05 10:56:38;;;;;;;1999.90;999.90;;;8.00;99.90;;;;;;5091492;28;20058;-64
2022/01/05 10:59:04;;;;;;;1999.90;999.90;;;7.50;99.90;;;;;;5093073;28;20048;-64
2022/01/05 11:01:31;;;;;;;1999.90;999.90;;;7.10;99.90;;;;;;5092451;28;20066;-64
2022/01/05 11:03:57;;;;;;;1999.90;999.90;;;6.90;99.90;;;;;;5092309;28;20044;-64
2022/01/05 11:06:24;;;;;;;1999.90;999.90;;;7.10;99.90;;;;;;5076897;28;20048;-64
2022/01/05 11:08:55;;;;;;;1999.90;999.90;;;7.00;99.90;;;;;;5096350;28;20393;-64
2022/01/05 11:11:41;;;;;;;1999.90;999.90;;;7.30;99.90;;;;;;5095219;28;20082;-64
2022/01/05 11:14:17;;;;;;;1999.90;999.90;;;7.30;99.90;;;;;;5076432;28;20036;-64
2022/01/05 11:16:46;;;;;;;1999.90;999.90;;;7.30;99.90;;;;;;5075978;28;20044;-64
2022/01/05 11:19:20;;;;;;;1999.90;999.90;;;7.30;99.90;;;;;;5076135;28;20048;-64
2022/01/05 11:22:05;;;;;;;1999.90;999.90;;;7.40;99.90;;;;;;5076176;28;20041;-63
2022/01/05 11:24:35;;;;;;;1999.90;999.90;;;7.70;99.90;;;;;;5075787;28;20055;-64
2022/01/05 11:27:03;;;;;;;1999.90;999.90;;;7.90;99.90;;;;;;5076040;28;20437;-64
2022/01/05 11:29:29;;;;;;;1999.90;999.90;;;8.00;99.90;;;;;;5076129;28;20127;-63
2022/01/05 11:31:57;;;;;;;1999.90;999.90;;;8.30;99.90;;;;;;5075176;28;20123;-64
2022/01/05 11:34:26;;;;;;;1999.90;999.90;;;8.40;99.90;;;;;;5076144;28;20040;-64
2022/01/05 11:36:51;;;;;;;1999.90;999.90;;;8.00;99.90;;;;;;5075563;28;20415;-63
2022/01/05 11:39:17;;;;;;;1999.90;999.90;;;7.80;99.90;;;;;;5074407;28;20048;-64
2022/01/05 11:41:48;;;;;;;1999.90;999.90;;;7.70;99.90;;;;;;5074964;28;20375;-64
2022/01/05 11:44:17;;;;;;;1999.90;999.90;;;7.70;99.90;;;;;;5075217;28;20049;-63
2022/01/05 11:46:45;;;;;;;1999.90;999.90;;;7.50;99.90;;;;;;5076072;28;20044;-64
2022/01/05 11:49:14;;;;;;;1999.90;999.90;;;7.50;99.90;;;;;;5075224;28;20071;-64
2022/01/05 11:51:41;;;;;;;1999.90;999.90;;;7.40;99.90;;;;;;5075377;28;20083;-63
2022/01/05 11:54:16;;;;;;;1999.90;999.90;;;7.40;99.90;;;;;;5090361;28;20441;-64
2022/01/05 11:56:45;;;;;;;1999.90;999.90;;;7.50;99.90;;;;;;5079744;28;20056;-64
2022/01/05 11:59:21;;;;;;;1999.90;999.90;;;7.50;99.90;;;;;;5094829;28;20044;-64
2022/01/05 12:02:05;;;;;;;1999.90;999.90;;;7.50;99.90;;;;;;5092198;28;20048;-64
2022/01/05 12:04:32;;;;;;;1999.90;999.90;;;7.40;99.90;;;;;;5075616;28;20087;-64
2022/01/05 12:07:03;;;;;;;1999.90;999.90;;;7.50;99.90;;;;;;5088716;28;20055;-64
2022/01/05 12:09:31;;;;;;;1999.90;999.90;;;7.40;99.90;;;;;;5094946;28;20079;-64
2022/01/05 12:12:02;;;;;;;1999.90;999.90;;;7.30;99.90;;;;;;5094821;28;20129;-64